createdAt,value
2022-12-11T00:00:12.070Z,1.80
2022-12-11T00:02:39.309Z,1.80
2022-12-11T00:05:06.516Z,1.70
2022-12-11T00:07:33.443Z,1.70
2022-12-11T00:10:00.297Z,1.80
2022-12-11T00:12:27.200Z,1.80
2022-12-11T00:14:54.132Z,1.80
2022-12-11T00:17:21.026Z,2.00
2022-12-11T00:19:47.897Z,1.90
2022-12-11T00:22:15.030Z,1.90
2022-12-11T00:24:41.860Z,1.90
2022-12-11T00:27:08.725Z,1.90
2022-12-11T00:29:35.553Z,1.90
2022-12-11T00:32:02.510Z,2.20
2022-12-11T00:34:29.457Z,1.80
2022-12-11T00:36:56.347Z,1.70
2022-12-11T00:39:23.191Z,1.70
2022-12-11T00:41:50.187Z,1.70
2022-12-11T00:44:17.072Z,1.80
2022-12-11T00:46:43.928Z,1.70
2022-12-11T00:49:10.768Z,1.80
2022-12-11T00:51:38.129Z,1.80
2022-12-11T00:54:06.288Z,1.80
2022-12-11T00:56:33.185Z,1.80
2022-12-11T00:59:00.019Z,1.80
2022-12-11T01:01:27.031Z,1.80
2022-12-11T01:03:54.371Z,1.80
2022-12-11T01:06:24.092Z,1.80
2022-12-11T01:09:10.534Z,1.80
2022-12-11T01:11:37.862Z,1.80
2022-12-11T01:14:05.355Z,1.70
2022-12-11T01:16:33.125Z,1.70
2022-12-11T01:19:00.212Z,1.70
2022-12-11T01:21:27.184Z,1.80
2022-12-11T01:23:54.524Z,1.70
2022-12-11T01:26:21.714Z,1.70
2022-12-11T01:28:52.127Z,1.60
2022-12-11T01:31:20.123Z,1.60
2022-12-11T01:33:47.040Z,1.60
2022-12-11T01:36:19.460Z,1.50
2022-12-11T01:38:47.779Z,1.60
2022-12-11T01:41:15.530Z,1.60
2022-12-11T01:44:03.669Z,1.60
2022-12-11T01:46:32.609Z,1.60
2022-12-11T01:49:01.041Z,1.60
2022-12-11T01:51:29.658Z,1.50
2022-12-11T01:54:05.273Z,1.50
2022-12-11T01:56:36.436Z,1.50
2022-12-11T01:59:07.534Z,1.50
2022-12-11T02:01:36.859Z,1.50
2022-12-11T02:04:04.348Z,1.40
2022-12-11T02:06:40.598Z,1.40
2022-12-11T02:09:21.926Z,1.40
2022-12-11T02:12:13.308Z,1.40
2022-12-11T02:14:54.386Z,1.40
2022-12-11T02:17:42.224Z,1.30
2022-12-11T02:20:26.190Z,1.30
2022-12-11T02:22:58.857Z,1.30
2022-12-11T02:25:38.262Z,1.20
2022-12-11T02:28:17.518Z,1.30
2022-12-11T02:30:50.729Z,1.30
2022-12-11T02:33:23.489Z,1.30
2022-12-11T02:35:51.199Z,1.30
2022-12-11T02:38:41.672Z,1.30
2022-12-11T02:41:10.618Z,1.30
2022-12-11T02:43:39.330Z,1.30
2022-12-11T02:46:08.504Z,1.30
2022-12-11T02:48:37.162Z,1.20
2022-12-11T02:51:06.324Z,1.20
2022-12-11T02:53:37.256Z,1.10
2022-12-11T02:56:32.856Z,1.20
2022-12-11T02:59:04.636Z,1.10
2022-12-11T03:01:31.661Z,1.20
2022-12-11T03:03:59.036Z,1.20
2022-12-11T03:06:34.526Z,1.20
2022-12-11T03:09:01.619Z,1.10
2022-12-11T03:11:28.454Z,1.10
2022-12-11T03:13:55.555Z,1.10
2022-12-11T03:16:42.557Z,1.60
2022-12-11T03:19:38.791Z,1.10
2022-12-11T03:22:19.016Z,1.10
2022-12-11T03:24:59.806Z,1.10
2022-12-11T03:27:38.574Z,1.10
2022-12-11T03:30:08.244Z,1.20
2022-12-11T03:32:49.237Z,1.20
2022-12-11T03:35:31.821Z,1.20
2022-12-11T03:38:02.944Z,1.20
2022-12-11T03:40:33.237Z,1.20
2022-12-11T03:43:00.618Z,1.20
2022-12-11T03:45:29.744Z,1.30
2022-12-11T03:47:59.612Z,1.20
2022-12-11T03:50:30.877Z,1.10
2022-12-11T03:52:58.604Z,1.10
2022-12-11T03:55:27.823Z,1.10
2022-12-11T03:57:54.688Z,1.10
2022-12-11T04:00:22.425Z,1.00
2022-12-11T04:03:13.382Z,0.90
2022-12-11T04:05:46.786Z,1.00
2022-12-11T04:08:14.904Z,0.90
2022-12-11T04:10:42.366Z,0.80
2022-12-11T04:13:10.638Z,0.80
2022-12-11T04:15:38.724Z,0.70
2022-12-11T04:18:25.644Z,0.70
2022-12-11T04:21:14.322Z,0.60
2022-12-11T04:23:59.697Z,0.60
2022-12-11T04:26:26.664Z,0.60
2022-12-11T04:28:53.514Z,0.60
2022-12-11T04:31:22.772Z,0.60
2022-12-11T04:33:50.149Z,0.60
2022-12-11T04:36:17.140Z,0.70
2022-12-11T04:38:43.992Z,0.70
2022-12-11T04:41:14.587Z,0.70
2022-12-11T04:43:45.223Z,0.70
2022-12-11T04:46:23.262Z,0.70
2022-12-11T04:48:56.836Z,0.70
2022-12-11T04:51:24.520Z,0.70
2022-12-11T04:53:51.630Z,0.70
2022-12-11T04:56:18.739Z,0.70
2022-12-11T04:58:46.485Z,0.70
2022-12-11T05:01:23.171Z,0.70
2022-12-11T05:03:50.493Z,0.70
2022-12-11T05:06:17.391Z,0.60
2022-12-11T05:08:45.367Z,0.60
2022-12-11T05:11:15.044Z,0.60
2022-12-11T05:13:42.872Z,0.60
2022-12-11T05:16:11.724Z,0.70
2022-12-11T05:18:38.701Z,1.00
2022-12-11T05:21:09.062Z,0.80
2022-12-11T05:23:36.337Z,0.80
2022-12-11T05:26:07.317Z,0.80
2022-12-11T05:28:37.379Z,0.80
2022-12-11T05:31:12.313Z,0.80
2022-12-11T05:33:39.436Z,0.70
2022-12-11T05:36:07.734Z,1.00
2022-12-11T05:38:34.981Z,0.70
2022-12-11T05:41:04.920Z,0.70
2022-12-11T05:43:34.165Z,0.70
2022-12-11T05:46:14.212Z,0.60
2022-12-11T05:48:42.349Z,0.60
2022-12-11T05:51:09.656Z,0.60
2022-12-11T05:53:37.787Z,0.60
2022-12-11T05:56:13.472Z,0.50
2022-12-11T05:58:41.380Z,0.60
2022-12-11T06:01:11.430Z,0.50
2022-12-11T06:03:38.962Z,0.50
2022-12-11T06:06:07.229Z,0.50
2022-12-11T06:08:35.182Z,0.60
2022-12-11T06:11:02.327Z,0.60
2022-12-11T06:13:29.290Z,0.60
2022-12-11T06:15:59.825Z,0.60
2022-12-11T06:18:26.697Z,0.70
2022-12-11T06:20:53.642Z,0.70
2022-12-11T06:23:21.047Z,0.80
2022-12-11T06:25:47.878Z,0.70
2022-12-11T06:28:15.023Z,0.80
2022-12-11T06:30:41.837Z,0.80
2022-12-11T06:33:09.403Z,0.80
2022-12-11T06:35:41.736Z,0.80
2022-12-11T06:38:10.805Z,0.90
2022-12-11T06:40:38.281Z,0.90
2022-12-11T06:43:05.121Z,0.90
2022-12-11T06:45:31.977Z,0.90
2022-12-11T06:47:59.162Z,0.80
2022-12-11T06:50:26.389Z,0.80
2022-12-11T06:52:53.370Z,0.80
2022-12-11T06:55:20.246Z,0.80
2022-12-11T06:57:47.100Z,0.80
2022-12-11T07:00:15.051Z,0.80
2022-12-11T07:02:41.975Z,0.80
2022-12-11T07:05:09.468Z,0.70
2022-12-11T07:07:36.657Z,0.60
2022-12-11T07:10:07.949Z,0.60
2022-12-11T07:12:36.212Z,0.60
2022-12-11T07:15:04.425Z,0.60
2022-12-11T07:17:31.424Z,0.60
2022-12-11T07:19:58.325Z,0.60
2022-12-11T07:22:25.158Z,0.60
2022-12-11T07:24:51.941Z,0.60
2022-12-11T07:27:18.822Z,0.60
2022-12-11T07:29:45.703Z,0.60
2022-12-11T07:32:12.707Z,0.60
2022-12-11T07:34:40.068Z,0.50
2022-12-11T07:37:06.949Z,0.60
2022-12-11T07:39:33.857Z,0.60
2022-12-11T07:42:00.725Z,0.50
2022-12-11T07:44:27.556Z,0.50
2022-12-11T07:46:54.401Z,0.50
2022-12-11T07:49:21.300Z,0.50
2022-12-11T07:51:48.159Z,0.50
2022-12-11T07:54:16.897Z,0.50
2022-12-11T07:56:51.154Z,0.50
2022-12-11T07:59:20.919Z,0.50
2022-12-11T08:01:47.980Z,0.50
2022-12-11T08:04:15.882Z,0.50
2022-12-11T08:06:43.604Z,0.50
2022-12-11T08:09:17.454Z,0.50
2022-12-11T08:11:51.981Z,0.60
2022-12-11T08:14:19.900Z,0.70
2022-12-11T08:16:47.091Z,0.70
2022-12-11T08:19:14.323Z,0.70
2022-12-11T08:21:41.385Z,0.80
2022-12-11T08:24:09.063Z,0.80
2022-12-11T08:26:36.296Z,0.90
2022-12-11T08:29:10.722Z,0.90
2022-12-11T08:31:38.512Z,1.00
2022-12-11T08:34:05.381Z,1.10
2022-12-11T08:36:32.644Z,1.10
2022-12-11T08:39:00.449Z,1.20
2022-12-11T08:41:29.402Z,1.20
2022-12-11T08:43:58.460Z,1.40
2022-12-11T08:46:28.154Z,1.40
2022-12-11T08:48:56.023Z,1.50
2022-12-11T08:51:24.999Z,1.50
2022-12-11T08:53:54.225Z,1.40
2022-12-11T08:56:22.779Z,1.40
2022-12-11T08:58:50.217Z,1.30
2022-12-11T09:01:23.781Z,1.20
2022-12-11T09:03:51.875Z,1.10
2022-12-11T09:06:21.380Z,1.00
2022-12-11T09:08:52.524Z,0.90
2022-12-11T09:11:29.751Z,0.80
2022-12-11T09:13:57.593Z,0.80
2022-12-11T09:16:27.523Z,0.70
2022-12-11T09:18:57.045Z,0.70
2022-12-11T09:21:26.193Z,0.60
2022-12-11T09:23:55.792Z,0.60
2022-12-11T09:26:23.562Z,0.60
2022-12-11T09:28:53.891Z,0.50
2022-12-11T09:31:29.428Z,0.50
2022-12-11T09:33:59.161Z,0.50
2022-12-11T09:36:26.095Z,0.50
2022-12-11T09:38:53.587Z,0.50
2022-12-11T09:41:23.486Z,0.40
2022-12-11T09:44:13.546Z,0.40
2022-12-11T09:46:41.512Z,0.40
2022-12-11T09:49:26.201Z,0.40
2022-12-11T09:52:29.529Z,0.40
2022-12-11T09:55:04.600Z,0.40
2022-12-11T09:57:56.679Z,0.40
2022-12-11T10:00:47.208Z,0.40
2022-12-11T10:03:26.042Z,0.40
2022-12-11T10:06:07.427Z,0.40
2022-12-11T10:08:40.068Z,0.40
2022-12-11T10:11:29.895Z,0.60
2022-12-11T10:14:47.111Z,0.40
2022-12-11T10:17:41.780Z,0.50
2022-12-11T10:20:20.941Z,0.50
2022-12-11T10:22:49.663Z,0.50
2022-12-11T10:25:30.079Z,0.50
2022-12-11T10:27:57.626Z,0.60
2022-12-11T10:30:37.521Z,0.60
2022-12-11T10:33:50.757Z,0.60
2022-12-11T10:36:23.148Z,0.60
2022-12-11T10:38:50.718Z,0.60
2022-12-11T10:41:33.055Z,0.70
2022-12-11T10:44:06.130Z,0.70
2022-12-11T10:46:33.157Z,0.70
2022-12-11T10:49:01.323Z,0.90
2022-12-11T10:51:31.253Z,1.00
2022-12-11T10:54:07.471Z,1.00
2022-12-11T10:56:37.682Z,0.80
2022-12-11T10:59:04.960Z,0.80
2022-12-11T11:01:32.991Z,0.80
2022-12-11T11:04:04.785Z,0.80
2022-12-11T11:06:31.667Z,0.70
2022-12-11T11:09:00.608Z,0.70
2022-12-11T11:11:35.024Z,1.10
2022-12-11T11:14:09.956Z,0.80
2022-12-11T11:16:39.760Z,0.90
2022-12-11T11:19:07.148Z,0.90
2022-12-11T11:21:35.795Z,1.40
2022-12-11T11:24:03.856Z,1.10
2022-12-11T11:27:04.435Z,1.20
2022-12-11T11:29:27.945Z,1.30
2022-12-11T11:31:54.944Z,1.20
2022-12-11T11:34:22.263Z,1.20
2022-12-11T11:36:57.831Z,1.40
2022-12-11T11:39:38.419Z,1.60
2022-12-11T11:42:30.357Z,1.30
2022-12-11T11:45:05.380Z,1.10
2022-12-11T11:47:40.457Z,1.30
2022-12-11T11:50:20.109Z,1.20
2022-12-11T11:52:55.842Z,1.30
2022-12-11T11:55:45.669Z,1.30
2022-12-11T11:58:22.911Z,1.30
2022-12-11T12:00:53.159Z,1.30
2022-12-11T12:03:23.077Z,1.30
2022-12-11T12:05:53.714Z,1.50
2022-12-11T12:08:32.921Z,1.30
2022-12-11T12:11:41.956Z,1.40
2022-12-11T12:14:51.797Z,1.40
2022-12-11T12:17:31.584Z,1.30
2022-12-11T12:20:13.730Z,1.30
2022-12-11T12:22:48.584Z,1.30
2022-12-11T12:25:31.058Z,1.30
2022-12-11T12:28:16.769Z,1.30
2022-12-11T12:31:08.641Z,1.30
2022-12-11T12:34:16.709Z,1.40
2022-12-11T12:36:57.010Z,1.40
2022-12-11T12:39:53.037Z,1.40
2022-12-11T12:42:53.464Z,1.30
2022-12-11T12:45:47.293Z,1.30
2022-12-11T12:48:14.585Z,1.30
2022-12-11T12:50:46.417Z,1.20
2022-12-11T12:53:30.541Z,1.30
2022-12-11T12:55:57.984Z,1.30
2022-12-11T12:58:44.983Z,1.20
2022-12-11T13:01:19.209Z,1.30
2022-12-11T13:04:06.559Z,1.50
2022-12-11T13:06:41.893Z,1.30
2022-12-11T13:09:19.474Z,1.20
2022-12-11T13:11:50.051Z,1.30
2022-12-11T13:14:16.920Z,1.20
2022-12-11T13:16:46.337Z,1.20
2022-12-11T13:19:25.563Z,1.20
2022-12-11T13:22:06.479Z,1.20
2022-12-11T13:24:34.569Z,1.20
2022-12-11T13:27:22.417Z,1.20
2022-12-11T13:29:49.447Z,1.20
2022-12-11T13:32:16.193Z,1.20
2022-12-11T13:34:50.588Z,1.20
2022-12-11T13:37:34.854Z,1.20
2022-12-11T13:40:08.440Z,1.20
2022-12-11T13:42:48.311Z,1.20
2022-12-11T13:45:35.120Z,1.20
2022-12-11T13:48:02.038Z,1.20
2022-12-11T13:50:31.918Z,1.10
2022-12-11T13:53:01.311Z,1.10
2022-12-11T13:55:31.282Z,1.10
2022-12-11T13:57:58.427Z,1.10
2022-12-11T14:00:32.997Z,1.10
2022-12-11T14:03:04.340Z,1.10
2022-12-11T14:05:31.608Z,1.00
2022-12-11T14:08:03.127Z,1.00
2022-12-11T14:10:32.144Z,1.00
2022-12-11T14:13:10.659Z,0.90
2022-12-11T14:15:38.350Z,1.00
2022-12-11T14:18:05.558Z,0.90
2022-12-11T14:20:34.390Z,0.90
2022-12-11T14:23:21.640Z,1.20
2022-12-11T14:26:00.011Z,1.10
2022-12-11T14:28:30.522Z,0.90
2022-12-11T14:30:59.569Z,1.00
2022-12-11T14:33:32.390Z,0.80
2022-12-11T14:36:00.459Z,0.80
2022-12-11T14:38:31.919Z,0.90
2022-12-11T14:41:04.972Z,0.80
2022-12-11T14:43:38.464Z,0.80
2022-12-11T14:46:10.241Z,0.70
2022-12-11T14:48:44.981Z,0.90
2022-12-11T14:51:15.449Z,0.60
2022-12-11T14:53:45.620Z,0.60
2022-12-11T14:56:31.288Z,0.60
2022-12-11T14:59:06.218Z,0.50
2022-12-11T15:01:35.436Z,0.50
2022-12-11T15:04:19.695Z,0.50
2022-12-11T15:06:48.839Z,0.40
2022-12-11T15:09:29.911Z,0.40
2022-12-11T15:12:07.454Z,0.40
2022-12-11T15:14:34.754Z,0.30
2022-12-11T15:17:04.409Z,0.30
2022-12-11T15:19:34.556Z,0.30
2022-12-11T15:22:06.809Z,0.30
2022-12-11T15:24:42.560Z,0.30
2022-12-11T15:27:24.587Z,0.30
2022-12-11T15:29:51.648Z,0.20
2022-12-11T15:32:21.731Z,0.20
2022-12-11T15:34:52.178Z,0.30
2022-12-11T15:37:25.373Z,0.30
2022-12-11T15:39:53.798Z,0.30
2022-12-11T15:42:36.838Z,0.30
2022-12-11T15:45:07.426Z,0.30
2022-12-11T15:47:34.558Z,0.40
2022-12-11T15:50:13.423Z,0.40
2022-12-11T15:52:41.204Z,0.50
2022-12-11T15:55:08.726Z,0.40
2022-12-11T15:57:36.778Z,0.50
2022-12-11T17:53:01.908Z,0.50
2022-12-11T17:55:28.973Z,0.50
2022-12-11T17:57:55.897Z,0.50
2022-12-11T18:00:24.512Z,0.40
2022-12-11T18:02:52.875Z,0.40
2022-12-11T18:05:20.396Z,0.10
2022-12-11T18:07:50.539Z,0.00
2022-12-11T18:10:19.767Z,0.30
2022-12-11T18:12:46.937Z,0.30
2022-12-11T18:15:14.388Z,0.20
2022-12-11T18:17:41.650Z,0.20
2022-12-11T18:20:14.582Z,0.10
2022-12-11T18:22:41.627Z,0.20
2022-12-11T18:25:11.986Z,0.30
2022-12-11T18:27:41.431Z,0.30
2022-12-11T18:30:09.319Z,0.40
2022-12-11T18:32:36.417Z,0.50
2022-12-11T18:35:04.713Z,0.80
2022-12-11T18:37:32.988Z,0.60
2022-12-11T18:40:00.254Z,0.70
2022-12-11T18:42:33.070Z,0.70
2022-12-11T18:45:01.190Z,0.80
2022-12-11T18:47:28.358Z,0.80
2022-12-11T18:49:55.460Z,1.10
2022-12-11T18:52:22.600Z,1.10
2022-12-11T18:54:52.574Z,1.10
2022-12-11T18:57:23.243Z,0.90
2022-12-11T18:59:54.182Z,0.80
2022-12-11T19:02:21.975Z,0.80
2022-12-11T19:04:49.404Z,1.10
2022-12-11T19:07:16.704Z,0.80
2022-12-11T19:09:48.433Z,1.10
2022-12-11T19:12:15.641Z,0.80
2022-12-11T19:14:42.892Z,1.00
2022-12-11T19:17:10.125Z,0.80
2022-12-11T19:19:37.380Z,1.10
2022-12-11T19:22:33.507Z,1.10
2022-12-11T19:27:58.089Z,0.80
2022-12-11T19:30:25.540Z,0.90
2022-12-11T19:32:52.671Z,0.70
2022-12-11T19:35:19.715Z,0.70
2022-12-11T19:37:46.889Z,0.60
2022-12-11T19:40:14.628Z,0.80
2022-12-11T19:42:41.791Z,0.50
2022-12-11T19:45:09.275Z,0.80
2022-12-11T19:47:36.424Z,0.50
2022-12-11T19:50:03.642Z,0.40
2022-12-11T19:52:30.712Z,0.40
2022-12-11T19:55:01.968Z,0.40
2022-12-11T19:57:34.608Z,0.40
2022-12-11T20:00:02.117Z,0.30
2022-12-11T20:02:29.038Z,0.30
2022-12-11T20:04:56.056Z,0.30
2022-12-11T20:07:30.227Z,0.70
2022-12-11T20:09:57.669Z,0.20
2022-12-11T20:12:24.641Z,0.60
2022-12-11T20:14:52.193Z,0.10
2022-12-11T20:17:19.165Z,0.20
2022-12-11T20:19:46.133Z,0.00
2022-12-11T20:22:13.073Z,0.20
2022-12-11T20:24:39.991Z,-0.10
2022-12-11T20:27:06.887Z,0.20
2022-12-11T20:29:33.858Z,-0.10
2022-12-11T20:32:01.013Z,-0.20
2022-12-11T20:34:27.983Z,-0.20
2022-12-11T20:36:56.198Z,-0.20
2022-12-11T20:39:23.245Z,-0.20
2022-12-11T20:41:50.175Z,-0.30
2022-12-11T20:44:17.274Z,-0.10
2022-12-11T20:46:44.213Z,-0.30
2022-12-11T20:49:13.089Z,-0.30
2022-12-11T20:51:41.149Z,-0.40
2022-12-11T20:54:08.382Z,-0.40
2022-12-11T20:56:35.557Z,-0.40
2022-12-11T20:59:02.617Z,-0.50
2022-12-11T21:01:31.981Z,-0.50
2022-12-11T21:04:00.095Z,-0.50
2022-12-11T21:06:33.844Z,-0.60
2022-12-11T21:09:06.063Z,-0.60
2022-12-11T21:11:33.096Z,-0.60
2022-12-11T21:14:00.048Z,-0.60
2022-12-11T21:16:27.658Z,-0.70
2022-12-11T21:18:58.848Z,-0.70
2022-12-11T21:21:26.381Z,-0.70
2022-12-11T21:23:53.489Z,-0.70
2022-12-11T21:26:21.422Z,-0.80
2022-12-11T21:28:48.802Z,-0.50
2022-12-11T21:31:19.304Z,-0.80
2022-12-11T21:33:51.560Z,-0.80
2022-12-11T21:36:21.187Z,-0.90
2022-12-11T21:38:48.742Z,-0.90
2022-12-11T21:41:19.045Z,-0.90
2022-12-11T21:46:36.216Z,-0.90
2022-12-11T21:49:03.939Z,-0.90
2022-12-11T21:51:38.562Z,-1.10
2022-12-11T21:54:10.461Z,-1.10
2022-12-11T21:56:37.547Z,-1.20
2022-12-11T21:59:05.168Z,-0.70
2022-12-11T22:01:38.461Z,-1.00
2022-12-11T22:04:06.163Z,-0.90
2022-12-11T22:06:33.821Z,-1.20
2022-12-11T22:09:02.575Z,-1.10
2022-12-11T22:11:37.162Z,-1.20
2022-12-11T22:14:04.543Z,-1.20
2022-12-11T22:16:31.508Z,-1.30
2022-12-11T22:18:58.636Z,-1.30
2022-12-11T22:21:25.989Z,-1.30
2022-12-11T22:23:53.055Z,-1.00
2022-12-11T22:26:26.128Z,-1.00
2022-12-11T22:29:00.817Z,-1.70
2022-12-11T22:31:28.222Z,-1.30
2022-12-11T22:33:55.510Z,-1.00
2022-12-11T22:36:25.212Z,-1.10
2022-12-11T22:38:59.846Z,-1.40
2022-12-11T22:41:31.314Z,-1.30
2022-12-11T22:43:58.880Z,-1.40
2022-12-11T22:46:28.949Z,-1.10
2022-12-11T22:48:56.972Z,-1.10
2022-12-11T22:51:24.346Z,-1.10
2022-12-11T22:53:51.456Z,-1.40
2022-12-11T22:56:18.416Z,-1.40
2022-12-11T22:58:45.444Z,-1.40
2022-12-11T23:01:16.653Z,-1.40
2022-12-11T23:03:43.911Z,-1.40
2022-12-11T23:06:13.953Z,-1.40
2022-12-11T23:08:42.486Z,-1.40
2022-12-11T23:11:24.195Z,-1.30
2022-12-11T23:13:51.615Z,-1.30
2022-12-11T23:16:21.223Z,-1.30
2022-12-11T23:18:48.207Z,-1.30
2022-12-11T23:21:15.402Z,-1.30
2022-12-11T23:23:43.374Z,-1.30
2022-12-11T23:26:13.029Z,-1.30
2022-12-11T23:28:41.063Z,-1.20
2022-12-11T23:31:09.081Z,-1.20
2022-12-11T23:33:36.461Z,-0.90
2022-12-11T23:36:04.592Z,-1.20
2022-12-11T23:38:32.601Z,-1.20
2022-12-11T23:41:02.304Z,-1.20
2022-12-11T23:43:29.822Z,-1.20
2022-12-11T23:45:57.605Z,-0.90
2022-12-11T23:48:24.752Z,-1.00
2022-12-11T23:50:52.305Z,-1.30
2022-12-11T23:53:19.643Z,-1.00
2022-12-11T23:55:47.018Z,-1.10
2022-12-11T23:58:14.089Z,-1.30
